sensor_id;sensor_type;location;lat;lon;timestamp;P1;durP1;ratioP1;P2;durP2;ratioP2
12802;SDS011;6465;42.700;23.278;2024-02-23T00:00:59;9.43;;;7.43;;
12802;SDS011;6465;42.700;23.278;2024-02-23T00:03:26;8.20;;;7.40;;
12802;SDS011;6465;42.700;23.278;2024-02-23T00:05:53;8.13;;;6.83;;
12802;SDS011;6465;42.700;23.278;2024-02-23T00:08:21;8.17;;;7.37;;
12802;SDS011;6465;42.700;23.278;2024-02-23T00:10:48;7.93;;;7.13;;
12802;SDS011;6465;42.700;23.278;2024-02-23T00:13:15;9.13;;;7.03;;
12802;SDS011;6465;42.700;23.278;2024-02-23T00:15:42;7.70;;;7.00;;
12802;SDS011;6465;42.700;23.278;2024-02-23T00:18:10;7.93;;;7.13;;
12802;SDS011;6465;42.700;23.278;2024-02-23T00:20:38;7.03;;;6.33;;
12802;SDS011;6465;42.700;23.278;2024-02-23T00:23:06;8.63;;;7.20;;
12802;SDS011;6465;42.700;23.278;2024-02-23T00:25:34;8.50;;;6.47;;
12802;SDS011;6465;42.700;23.278;2024-02-23T00:28:01;8.60;;;7.50;;
12802;SDS011;6465;42.700;23.278;2024-02-23T00:30:28;7.97;;;7.17;;
12802;SDS011;6465;42.700;23.278;2024-02-23T00:32:55;8.43;;;7.63;;
12802;SDS011;6465;42.700;23.278;2024-02-23T00:35:22;8.10;;;7.30;;
12802;SDS011;6465;42.700;23.278;2024-02-23T00:37:49;9.00;;;8.10;;
12802;SDS011;6465;42.700;23.278;2024-02-23T00:40:16;8.90;;;7.17;;
12802;SDS011;6465;42.700;23.278;2024-02-23T00:42:44;7.10;;;6.50;;
12802;SDS011;6465;42.700;23.278;2024-02-23T00:45:11;7.23;;;6.53;;
12802;SDS011;6465;42.700;23.278;2024-02-23T00:47:38;10.83;;;8.40;;
12802;SDS011;6465;42.700;23.278;2024-02-23T00:50:05;7.20;;;6.50;;
12802;SDS011;6465;42.700;23.278;2024-02-23T00:52:33;8.50;;;6.97;;
12802;SDS011;6465;42.700;23.278;2024-02-23T00:55:00;7.37;;;6.63;;
12802;SDS011;6465;42.700;23.278;2024-02-23T00:57:27;7.10;;;6.50;;
12802;SDS011;6465;42.700;23.278;2024-02-23T00:59:56;8.20;;;7.03;;
12802;SDS011;6465;42.700;23.278;2024-02-23T01:02:23;8.07;;;7.27;;
12802;SDS011;6465;42.700;23.278;2024-02-23T01:04:50;10.13;;;8.63;;
12802;SDS011;6465;42.700;23.278;2024-02-23T01:07:21;22.63;;;12.97;;
12802;SDS011;6465;42.700;23.278;2024-02-23T01:09:49;9.93;;;8.70;;
12802;SDS011;6465;42.700;23.278;2024-02-23T01:12:16;12.27;;;7.27;;
12802;SDS011;6465;42.700;23.278;2024-02-23T01:14:43;9.07;;;8.13;;
12802;SDS011;6465;42.700;23.278;2024-02-23T01:17:11;7.73;;;6.80;;
12802;SDS011;6465;42.700;23.278;2024-02-23T01:19:38;12.07;;;9.07;;
12802;SDS011;6465;42.700;23.278;2024-02-23T01:22:07;11.70;;;9.33;;
12802;SDS011;6465;42.700;23.278;2024-02-23T01:24:34;8.67;;;6.70;;
12802;SDS011;6465;42.700;23.278;2024-02-23T01:27:01;7.20;;;6.50;;
12802;SDS011;6465;42.700;23.278;2024-02-23T01:29:28;8.00;;;7.20;;
12802;SDS011;6465;42.700;23.278;2024-02-23T01:31:55;8.27;;;7.47;;
12802;SDS011;6465;42.700;23.278;2024-02-23T01:34:24;8.77;;;7.87;;
12802;SDS011;6465;42.700;23.278;2024-02-23T01:36:51;7.57;;;6.50;;
12802;SDS011;6465;42.700;23.278;2024-02-23T01:39:18;6.53;;;5.93;;
12802;SDS011;6465;42.700;23.278;2024-02-23T01:41:45;9.90;;;7.63;;
12802;SDS011;6465;42.700;23.278;2024-02-23T01:44:12;10.70;;;8.57;;
12802;SDS011;6465;42.700;23.278;2024-02-23T01:46:40;8.77;;;7.87;;
12802;SDS011;6465;42.700;23.278;2024-02-23T01:49:08;11.70;;;8.30;;
12802;SDS011;6465;42.700;23.278;2024-02-23T01:51:37;8.50;;;7.70;;
12802;SDS011;6465;42.700;23.278;2024-02-23T01:54:04;8.73;;;7.30;;
12802;SDS011;6465;42.700;23.278;2024-02-23T01:56:32;10.30;;;8.73;;
12802;SDS011;6465;42.700;23.278;2024-02-23T01:59:01;8.23;;;7.43;;
12802;SDS011;6465;42.700;23.278;2024-02-23T02:01:29;7.90;;;7.20;;
12802;SDS011;6465;42.700;23.278;2024-02-23T02:03:57;7.50;;;6.70;;
12802;SDS011;6465;42.700;23.278;2024-02-23T02:06:24;7.87;;;7.17;;
12802;SDS011;6465;42.700;23.278;2024-02-23T02:08:53;7.57;;;6.87;;
12802;SDS011;6465;42.700;23.278;2024-02-23T02:11:20;7.00;;;6.30;;
12802;SDS011;6465;42.700;23.278;2024-02-23T02:13:47;8.10;;;7.07;;
12802;SDS011;6465;42.700;23.278;2024-02-23T02:16:14;7.97;;;6.73;;
12802;SDS011;6465;42.700;23.278;2024-02-23T02:18:41;7.60;;;6.90;;
12802;SDS011;6465;42.700;23.278;2024-02-23T02:21:09;7.13;;;6.43;;
12802;SDS011;6465;42.700;23.278;2024-02-23T02:23:36;8.70;;;6.90;;
12802;SDS011;6465;42.700;23.278;2024-02-23T02:26:05;8.90;;;7.97;;
12802;SDS011;6465;42.700;23.278;2024-02-23T02:28:31;8.80;;;7.90;;
12802;SDS011;6465;42.700;23.278;2024-02-23T02:30:59;9.90;;;8.90;;
12802;SDS011;6465;42.700;23.278;2024-02-23T02:33:26;10.27;;;9.10;;
12802;SDS011;6465;42.700;23.278;2024-02-23T02:35:53;10.07;;;8.77;;
12802;SDS011;6465;42.700;23.278;2024-02-23T02:38:20;10.57;;;7.93;;
12802;SDS011;6465;42.700;23.278;2024-02-23T02:40:47;10.33;;;7.87;;
12802;SDS011;6465;42.700;23.278;2024-02-23T02:43:15;13.20;;;8.07;;
12802;SDS011;6465;42.700;23.278;2024-02-23T02:45:43;7.47;;;6.70;;
12802;SDS011;6465;42.700;23.278;2024-02-23T02:48:10;8.40;;;7.67;;
12802;SDS011;6465;42.700;23.278;2024-02-23T02:50:37;10.83;;;7.37;;
12802;SDS011;6465;42.700;23.278;2024-02-23T02:53:04;12.03;;;9.70;;
12802;SDS011;6465;42.700;23.278;2024-02-23T02:55:31;12.57;;;9.47;;
12802;SDS011;6465;42.700;23.278;2024-02-23T02:57:58;10.43;;;9.40;;
12802;SDS011;6465;42.700;23.278;2024-02-23T03:00:27;10.17;;;9.17;;
12802;SDS011;6465;42.700;23.278;2024-02-23T03:02:54;8.70;;;7.80;;
12802;SDS011;6465;42.700;23.278;2024-02-23T03:05:21;8.70;;;7.53;;
12802;SDS011;6465;42.700;23.278;2024-02-23T03:07:48;8.03;;;7.27;;
12802;SDS011;6465;42.700;23.278;2024-02-23T03:10:15;11.83;;;8.87;;
12802;SDS011;6465;42.700;23.278;2024-02-23T03:12:42;11.70;;;9.67;;
12802;SDS011;6465;42.700;23.278;2024-02-23T03:15:09;9.37;;;8.57;;
12802;SDS011;6465;42.700;23.278;2024-02-23T03:17:37;10.00;;;8.87;;
12802;SDS011;6465;42.700;23.278;2024-02-23T03:20:05;9.73;;;8.23;;
12802;SDS011;6465;42.700;23.278;2024-02-23T03:22:34;10.10;;;8.97;;
12802;SDS011;6465;42.700;23.278;2024-02-23T03:25:01;10.87;;;9.53;;
12802;SDS011;6465;42.700;23.278;2024-02-23T03:27:33;10.53;;;8.70;;
12802;SDS011;6465;42.700;23.278;2024-02-23T03:30:02;8.87;;;8.07;;
12802;SDS011;6465;42.700;23.278;2024-02-23T03:32:29;8.80;;;7.90;;
12802;SDS011;6465;42.700;23.278;2024-02-23T03:35:03;9.23;;;8.30;;
12802;SDS011;6465;42.700;23.278;2024-02-23T03:37:30;9.57;;;8.57;;
12802;SDS011;6465;42.700;23.278;2024-02-23T03:39:57;11.97;;;9.13;;
12802;SDS011;6465;42.700;23.278;2024-02-23T03:42:25;11.57;;;8.70;;
12802;SDS011;6465;42.700;23.278;2024-02-23T03:44:52;10.07;;;8.33;;
12802;SDS011;6465;42.700;23.278;2024-02-23T03:47:19;8.37;;;7.57;;
12802;SDS011;6465;42.700;23.278;2024-02-23T03:49:46;9.40;;;8.50;;
12802;SDS011;6465;42.700;23.278;2024-02-23T03:52:14;15.80;;;8.33;;
12802;SDS011;6465;42.700;23.278;2024-02-23T03:54:41;9.73;;;8.47;;
12802;SDS011;6465;42.700;23.278;2024-02-23T03:57:08;8.77;;;7.97;;
12802;SDS011;6465;42.700;23.278;2024-02-23T03:59:36;8.80;;;7.83;;
12802;SDS011;6465;42.700;23.278;2024-02-23T04:02:03;9.73;;;8.73;;
12802;SDS011;6465;42.700;23.278;2024-02-23T04:04:31;9.77;;;8.43;;
12802;SDS011;6465;42.700;23.278;2024-02-23T04:06:57;11.97;;;8.77;;
12802;SDS011;6465;42.700;23.278;2024-02-23T04:09:26;9.13;;;8.20;;
12802;SDS011;6465;42.700;23.278;2024-02-23T04:11:53;8.73;;;7.83;;
12802;SDS011;6465;42.700;23.278;2024-02-23T04:14:20;9.23;;;8.33;;
12802;SDS011;6465;42.700;23.278;2024-02-23T04:16:47;8.30;;;7.60;;
12802;SDS011;6465;42.700;23.278;2024-02-23T04:19:14;8.83;;;7.93;;
12802;SDS011;6465;42.700;23.278;2024-02-23T04:21:41;9.30;;;8.40;;
12802;SDS011;6465;42.700;23.278;2024-02-23T04:24:08;9.33;;;8.37;;
12802;SDS011;6465;42.700;23.278;2024-02-23T04:26:36;9.43;;;8.43;;
12802;SDS011;6465;42.700;23.278;2024-02-23T04:29:03;9.50;;;8.30;;
12802;SDS011;6465;42.700;23.278;2024-02-23T04:31:30;9.43;;;8.53;;
12802;SDS011;6465;42.700;23.278;2024-02-23T04:33:57;10.20;;;8.67;;
12802;SDS011;6465;42.700;23.278;2024-02-23T04:36:24;14.20;;;12.57;;
12802;SDS011;6465;42.700;23.278;2024-02-23T04:38:51;10.43;;;9.33;;
12802;SDS011;6465;42.700;23.278;2024-02-23T04:41:19;10.23;;;8.93;;
12802;SDS011;6465;42.700;23.278;2024-02-23T04:43:48;15.47;;;13.73;;
12802;SDS011;6465;42.700;23.278;2024-02-23T04:46:15;16.80;;;12.87;;
12802;SDS011;6465;42.700;23.278;2024-02-23T04:48:43;15.10;;;13.40;;
12802;SDS011;6465;42.700;23.278;2024-02-23T04:51:10;11.97;;;10.27;;
12802;SDS011;6465;42.700;23.278;2024-02-23T04:53:37;14.03;;;11.20;;
12802;SDS011;6465;42.700;23.278;2024-02-23T04:56:05;15.27;;;12.03;;
12802;SDS011;6465;42.700;23.278;2024-02-23T04:58:32;18.30;;;11.37;;
12802;SDS011;6465;42.700;23.278;2024-02-23T05:01:01;16.83;;;12.57;;
12802;SDS011;6465;42.700;23.278;2024-02-23T05:03:28;15.67;;;11.43;;
12802;SDS011;6465;42.700;23.278;2024-02-23T05:05:55;18.07;;;13.67;;
12802;SDS011;6465;42.700;23.278;2024-02-23T05:08:23;16.50;;;12.10;;
12802;SDS011;6465;42.700;23.278;2024-02-23T05:10:50;18.43;;;13.93;;
12802;SDS011;6465;42.700;23.278;2024-02-23T05:13:17;27.93;;;18.17;;
12802;SDS011;6465;42.700;23.278;2024-02-23T05:15:44;48.77;;;41.53;;
12802;SDS011;6465;42.700;23.278;2024-02-23T05:18:12;80.83;;;69.23;;
12802;SDS011;6465;42.700;23.278;2024-02-23T05:20:39;58.10;;;47.10;;
12802;SDS011;6465;42.700;23.278;2024-02-23T05:23:06;20.63;;;17.47;;
12802;SDS011;6465;42.700;23.278;2024-02-23T05:25:34;32.60;;;25.97;;
12802;SDS011;6465;42.700;23.278;2024-02-23T05:28:01;31.10;;;24.63;;
12802;SDS011;6465;42.700;23.278;2024-02-23T05:30:28;33.80;;;27.03;;
12802;SDS011;6465;42.700;23.278;2024-02-23T05:32:56;20.83;;;16.30;;
12802;SDS011;6465;42.700;23.278;2024-02-23T05:35:25;35.57;;;26.73;;
12802;SDS011;6465;42.700;23.278;2024-02-23T05:37:52;63.63;;;48.40;;
12802;SDS011;6465;42.700;23.278;2024-02-23T05:40:20;29.80;;;24.47;;
12802;SDS011;6465;42.700;23.278;2024-02-23T05:42:47;25.10;;;19.73;;
12802;SDS011;6465;42.700;23.278;2024-02-23T05:45:14;15.63;;;12.40;;
12802;SDS011;6465;42.700;23.278;2024-02-23T05:47:41;15.40;;;12.40;;
12802;SDS011;6465;42.700;23.278;2024-02-23T05:50:08;16.00;;;13.20;;
12802;SDS011;6465;42.700;23.278;2024-02-23T05:52:37;18.20;;;14.27;;
12802;SDS011;6465;42.700;23.278;2024-02-23T05:55:04;23.27;;;16.83;;
12802;SDS011;6465;42.700;23.278;2024-02-23T05:57:31;15.70;;;13.27;;
12802;SDS011;6465;42.700;23.278;2024-02-23T05:59:58;16.63;;;12.90;;
12802;SDS011;6465;42.700;23.278;2024-02-23T06:02:25;20.13;;;15.30;;
12802;SDS011;6465;42.700;23.278;2024-02-23T06:04:52;21.07;;;15.83;;
12802;SDS011;6465;42.700;23.278;2024-02-23T06:07:19;20.07;;;15.13;;
12802;SDS011;6465;42.700;23.278;2024-02-23T06:09:55;15.37;;;12.13;;
12802;SDS011;6465;42.700;23.278;2024-02-23T06:12:22;19.57;;;13.77;;
12802;SDS011;6465;42.700;23.278;2024-02-23T06:17:16;13.57;;;11.83;;
12802;SDS011;6465;42.700;23.278;2024-02-23T06:19:43;14.43;;;11.73;;
12802;SDS011;6465;42.700;23.278;2024-02-23T06:22:10;14.97;;;12.37;;
12802;SDS011;6465;42.700;23.278;2024-02-23T06:24:37;15.30;;;11.63;;
12802;SDS011;6465;42.700;23.278;2024-02-23T06:27:06;16.50;;;11.27;;
12802;SDS011;6465;42.700;23.278;2024-02-23T06:29:33;15.73;;;12.27;;
12802;SDS011;6465;42.700;23.278;2024-02-23T06:32:00;12.60;;;11.17;;
12802;SDS011;6465;42.700;23.278;2024-02-23T06:34:28;13.23;;;10.63;;
12802;SDS011;6465;42.700;23.278;2024-02-23T06:36:55;16.07;;;11.67;;
12802;SDS011;6465;42.700;23.278;2024-02-23T06:39:22;14.73;;;11.57;;
12802;SDS011;6465;42.700;23.278;2024-02-23T06:41:49;16.13;;;12.13;;
12802;SDS011;6465;42.700;23.278;2024-02-23T06:44:17;17.30;;;11.93;;
12802;SDS011;6465;42.700;23.278;2024-02-23T06:46:44;15.93;;;12.43;;
12802;SDS011;6465;42.700;23.278;2024-02-23T06:49:11;15.80;;;11.80;;
12802;SDS011;6465;42.700;23.278;2024-02-23T06:51:38;15.07;;;11.57;;
12802;SDS011;6465;42.700;23.278;2024-02-23T06:54:06;14.20;;;12.00;;
12802;SDS011;6465;42.700;23.278;2024-02-23T06:56:33;15.43;;;11.93;;
12802;SDS011;6465;42.700;23.278;2024-02-23T06:59:01;14.47;;;11.73;;
12802;SDS011;6465;42.700;23.278;2024-02-23T07:01:30;16.83;;;11.73;;
12802;SDS011;6465;42.700;23.278;2024-02-23T07:03:59;11.87;;;10.67;;
12802;SDS011;6465;42.700;23.278;2024-02-23T07:06:25;13.93;;;11.17;;
12802;SDS011;6465;42.700;23.278;2024-02-23T07:08:55;13.93;;;11.07;;
12802;SDS011;6465;42.700;23.278;2024-02-23T07:11:22;12.17;;;10.80;;
12802;SDS011;6465;42.700;23.278;2024-02-23T07:13:49;18.40;;;11.83;;
12802;SDS011;6465;42.700;23.278;2024-02-23T07:16:17;15.43;;;12.03;;
12802;SDS011;6465;42.700;23.278;2024-02-23T07:18:45;14.97;;;11.73;;
12802;SDS011;6465;42.700;23.278;2024-02-23T07:21:12;14.30;;;12.37;;
12802;SDS011;6465;42.700;23.278;2024-02-23T07:23:39;18.00;;;12.07;;
12802;SDS011;6465;42.700;23.278;2024-02-23T07:26:06;15.77;;;12.07;;
12802;SDS011;6465;42.700;23.278;2024-02-23T07:28:33;18.13;;;11.50;;
12802;SDS011;6465;42.700;23.278;2024-02-23T07:31:00;17.53;;;12.63;;
12802;SDS011;6465;42.700;23.278;2024-02-23T07:33:27;14.33;;;11.60;;
12802;SDS011;6465;42.700;23.278;2024-02-23T07:35:55;14.87;;;12.10;;
12802;SDS011;6465;42.700;23.278;2024-02-23T07:38:22;19.03;;;13.30;;
12802;SDS011;6465;42.700;23.278;2024-02-23T07:40:49;14.10;;;12.47;;
12802;SDS011;6465;42.700;23.278;2024-02-23T07:43:16;13.87;;;12.40;;
12802;SDS011;6465;42.700;23.278;2024-02-23T07:45:43;15.13;;;13.10;;
12802;SDS011;6465;42.700;23.278;2024-02-23T07:48:10;18.80;;;14.07;;
12802;SDS011;6465;42.700;23.278;2024-02-23T07:50:37;15.07;;;13.00;;
12802;SDS011;6465;42.700;23.278;2024-02-23T07:53:06;17.47;;;14.10;;
12802;SDS011;6465;42.700;23.278;2024-02-23T07:55:33;18.33;;;15.80;;
12802;SDS011;6465;42.700;23.278;2024-02-23T07:57:59;18.60;;;15.27;;
12802;SDS011;6465;42.700;23.278;2024-02-23T08:00:27;19.20;;;13.87;;
12802;SDS011;6465;42.700;23.278;2024-02-23T08:02:54;16.73;;;14.30;;
12802;SDS011;6465;42.700;23.278;2024-02-23T08:05:22;16.93;;;14.67;;
12802;SDS011;6465;42.700;23.278;2024-02-23T08:07:49;22.97;;;15.57;;
12802;SDS011;6465;42.700;23.278;2024-02-23T08:10:17;19.27;;;14.97;;
12802;SDS011;6465;42.700;23.278;2024-02-23T08:12:44;21.43;;;15.37;;
12802;SDS011;6465;42.700;23.278;2024-02-23T08:15:11;20.53;;;15.33;;
12802;SDS011;6465;42.700;23.278;2024-02-23T08:17:39;24.67;;;15.53;;
12802;SDS011;6465;42.700;23.278;2024-02-23T08:20:06;18.30;;;14.73;;
12802;SDS011;6465;42.700;23.278;2024-02-23T08:22:33;20.60;;;15.23;;
12802;SDS011;6465;42.700;23.278;2024-02-23T08:25:00;19.50;;;14.70;;
12802;SDS011;6465;42.700;23.278;2024-02-23T08:27:29;16.47;;;13.53;;
12802;SDS011;6465;42.700;23.278;2024-02-23T08:29:56;19.83;;;13.57;;
12802;SDS011;6465;42.700;23.278;2024-02-23T08:32:23;17.87;;;12.97;;
12802;SDS011;6465;42.700;23.278;2024-02-23T08:34:50;18.33;;;13.27;;
12802;SDS011;6465;42.700;23.278;2024-02-23T08:37:18;18.00;;;13.23;;
12802;SDS011;6465;42.700;23.278;2024-02-23T08:39:45;17.60;;;12.67;;
12802;SDS011;6465;42.700;23.278;2024-02-23T08:42:12;16.83;;;11.80;;
12802;SDS011;6465;42.700;23.278;2024-02-23T08:44:40;15.27;;;11.70;;
12802;SDS011;6465;42.700;23.278;2024-02-23T08:47:07;19.03;;;14.07;;
12802;SDS011;6465;42.700;23.278;2024-02-23T08:49:34;16.43;;;12.90;;
12802;SDS011;6465;42.700;23.278;2024-02-23T08:52:01;15.30;;;12.83;;
12802;SDS011;6465;42.700;23.278;2024-02-23T08:54:29;15.83;;;12.33;;
12802;SDS011;6465;42.700;23.278;2024-02-23T08:56:56;14.63;;;11.83;;
12802;SDS011;6465;42.700;23.278;2024-02-23T08:59:23;14.13;;;10.07;;
12802;SDS011;6465;42.700;23.278;2024-02-23T09:01:51;10.97;;;9.80;;
12802;SDS011;6465;42.700;23.278;2024-02-23T09:04:18;7.30;;;6.60;;
12802;SDS011;6465;42.700;23.278;2024-02-23T09:06:45;6.80;;;6.20;;
12802;SDS011;6465;42.700;23.278;2024-02-23T09:09:14;8.33;;;5.97;;
12802;SDS011;6465;42.700;23.278;2024-02-23T09:11:41;5.23;;;4.73;;
12802;SDS011;6465;42.700;23.278;2024-02-23T09:14:08;7.13;;;5.57;;
12802;SDS011;6465;42.700;23.278;2024-02-23T09:16:35;5.00;;;4.60;;
12802;SDS011;6465;42.700;23.278;2024-02-23T09:19:04;5.70;;;5.20;;
12802;SDS011;6465;42.700;23.278;2024-02-23T09:21:31;7.30;;;5.23;;
12802;SDS011;6465;42.700;23.278;2024-02-23T09:23:58;6.93;;;5.60;;
12802;SDS011;6465;42.700;23.278;2024-02-23T09:26:25;5.63;;;5.13;;
12802;SDS011;6465;42.700;23.278;2024-02-23T09:28:52;6.10;;;5.53;;
12802;SDS011;6465;42.700;23.278;2024-02-23T09:31:19;4.80;;;4.40;;
12802;SDS011;6465;42.700;23.278;2024-02-23T09:33:46;6.37;;;3.97;;
12802;SDS011;6465;42.700;23.278;2024-02-23T09:36:16;6.73;;;4.67;;
12802;SDS011;6465;42.700;23.278;2024-02-23T09:38:43;4.33;;;3.97;;
12802;SDS011;6465;42.700;23.278;2024-02-23T09:41:11;5.20;;;4.60;;
12802;SDS011;6465;42.700;23.278;2024-02-23T09:43:46;5.43;;;4.57;;
12802;SDS011;6465;42.700;23.278;2024-02-23T09:46:14;6.43;;;4.97;;
12802;SDS011;6465;42.700;23.278;2024-02-23T09:48:42;4.53;;;4.23;;
12802;SDS011;6465;42.700;23.278;2024-02-23T09:51:10;5.17;;;4.60;;
12802;SDS011;6465;42.700;23.278;2024-02-23T09:53:39;4.17;;;3.87;;
12802;SDS011;6465;42.700;23.278;2024-02-23T09:56:07;4.63;;;4.23;;
12802;SDS011;6465;42.700;23.278;2024-02-23T09:58:35;5.73;;;4.10;;
12802;SDS011;6465;42.700;23.278;2024-02-23T10:01:03;5.33;;;4.33;;
12802;SDS011;6465;42.700;23.278;2024-02-23T10:03:30;9.97;;;7.80;;
12802;SDS011;6465;42.700;23.278;2024-02-23T10:05:58;6.00;;;4.73;;
12802;SDS011;6465;42.700;23.278;2024-02-23T10:08:26;4.50;;;3.93;;
12802;SDS011;6465;42.700;23.278;2024-02-23T10:10:55;3.47;;;3.27;;
12802;SDS011;6465;42.700;23.278;2024-02-23T10:13:22;6.27;;;3.80;;
12802;SDS011;6465;42.700;23.278;2024-02-23T10:15:50;3.30;;;3.10;;
12802;SDS011;6465;42.700;23.278;2024-02-23T10:18:17;7.10;;;3.23;;
12802;SDS011;6465;42.700;23.278;2024-02-23T10:20:44;4.45;;;4.05;;
12802;SDS011;6465;42.700;23.278;2024-02-23T10:23:11;3.20;;;2.90;;
12802;SDS011;6465;42.700;23.278;2024-02-23T10:25:39;3.30;;;2.70;;
12802;SDS011;6465;42.700;23.278;2024-02-23T10:28:07;3.00;;;2.70;;
12802;SDS011;6465;42.700;23.278;2024-02-23T10:30:36;3.47;;;3.10;;
12802;SDS011;6465;42.700;23.278;2024-02-23T10:33:04;6.47;;;3.90;;
12802;SDS011;6465;42.700;23.278;2024-02-23T10:35:32;6.07;;;3.45;;
12802;SDS011;6465;42.700;23.278;2024-02-23T10:38:05;7.87;;;3.23;;
12802;SDS011;6465;42.700;23.278;2024-02-23T10:40:34;3.75;;;3.22;;
12802;SDS011;6465;42.700;23.278;2024-02-23T10:43:10;3.00;;;2.72;;
12802;SDS011;6465;42.700;23.278;2024-02-23T10:45:39;3.13;;;2.60;;
12802;SDS011;6465;42.700;23.278;2024-02-23T10:48:07;7.40;;;3.70;;
12802;SDS011;6465;42.700;23.278;2024-02-23T10:50:36;2.83;;;2.67;;
12802;SDS011;6465;42.700;23.278;2024-02-23T10:53:04;3.47;;;3.13;;
12802;SDS011;6465;42.700;23.278;2024-02-23T10:55:33;6.28;;;4.20;;
12802;SDS011;6465;42.700;23.278;2024-02-23T10:58:04;3.88;;;3.30;;
12802;SDS011;6465;42.700;23.278;2024-02-23T11:00:37;4.35;;;2.80;;
12802;SDS011;6465;42.700;23.278;2024-02-23T11:03:04;4.20;;;3.80;;
12802;SDS011;6465;42.700;23.278;2024-02-23T11:05:33;3.55;;;3.25;;
12802;SDS011;6465;42.700;23.278;2024-02-23T11:08:00;3.10;;;2.88;;
12802;SDS011;6465;42.700;23.278;2024-02-23T11:10:27;4.15;;;3.30;;
12802;SDS011;6465;42.700;23.278;2024-02-23T11:12:57;7.70;;;3.10;;
12802;SDS011;6465;42.700;23.278;2024-02-23T11:15:26;4.60;;;2.78;;
12802;SDS011;6465;42.700;23.278;2024-02-23T11:17:54;3.20;;;2.87;;
12802;SDS011;6465;42.700;23.278;2024-02-23T11:20:22;3.97;;;2.50;;
12802;SDS011;6465;42.700;23.278;2024-02-23T11:22:51;4.15;;;2.50;;
12802;SDS011;6465;42.700;23.278;2024-02-23T11:25:19;6.50;;;2.63;;
12802;SDS011;6465;42.700;23.278;2024-02-23T11:27:49;3.22;;;2.95;;
12802;SDS011;6465;42.700;23.278;2024-02-23T11:30:16;2.88;;;2.58;;
12802;SDS011;6465;42.700;23.278;2024-02-23T11:32:44;5.55;;;3.03;;
12802;SDS011;6465;42.700;23.278;2024-02-23T11:35:15;6.07;;;3.40;;
12802;SDS011;6465;42.700;23.278;2024-02-23T11:37:47;4.93;;;4.43;;
12802;SDS011;6465;42.700;23.278;2024-02-23T11:40:17;2.53;;;2.25;;
12802;SDS011;6465;42.700;23.278;2024-02-23T11:42:44;3.05;;;2.80;;
12802;SDS011;6465;42.700;23.278;2024-02-23T11:45:12;4.13;;;3.00;;
12802;SDS011;6465;42.700;23.278;2024-02-23T11:47:39;3.97;;;3.42;;
12802;SDS011;6465;42.700;23.278;2024-02-23T11:50:09;6.32;;;4.75;;
12802;SDS011;6465;42.700;23.278;2024-02-23T11:52:38;5.20;;;4.55;;
12802;SDS011;6465;42.700;23.278;2024-02-23T11:55:06;4.30;;;3.75;;
12802;SDS011;6465;42.700;23.278;2024-02-23T11:57:33;3.58;;;3.15;;
12802;SDS011;6465;42.700;23.278;2024-02-23T12:00:01;7.38;;;3.30;;
12802;SDS011;6465;42.700;23.278;2024-02-23T12:02:28;3.42;;;3.13;;
12802;SDS011;6465;42.700;23.278;2024-02-23T12:04:55;3.17;;;2.47;;
12802;SDS011;6465;42.700;23.278;2024-02-23T12:07:22;6.67;;;2.77;;
12802;SDS011;6465;42.700;23.278;2024-02-23T12:09:52;2.45;;;2.30;;
12802;SDS011;6465;42.700;23.278;2024-02-23T12:12:19;2.60;;;2.38;;
12802;SDS011;6465;42.700;23.278;2024-02-23T12:14:47;4.73;;;2.30;;
12802;SDS011;6465;42.700;23.278;2024-02-23T12:17:14;4.93;;;2.97;;
12802;SDS011;6465;42.700;23.278;2024-02-23T12:19:41;4.27;;;2.50;;
12802;SDS011;6465;42.700;23.278;2024-02-23T12:22:08;3.20;;;2.60;;
12802;SDS011;6465;42.700;23.278;2024-02-23T12:24:37;2.88;;;2.67;;
12802;SDS011;6465;42.700;23.278;2024-02-23T12:27:08;3.03;;;2.80;;
12802;SDS011;6465;42.700;23.278;2024-02-23T12:29:35;3.08;;;2.22;;
12802;SDS011;6465;42.700;23.278;2024-02-23T12:32:03;2.53;;;2.33;;
12802;SDS011;6465;42.700;23.278;2024-02-23T12:34:30;3.55;;;2.78;;
12802;SDS011;6465;42.700;23.278;2024-02-23T12:36:57;6.97;;;3.35;;
12802;SDS011;6465;42.700;23.278;2024-02-23T12:39:24;4.30;;;2.55;;
12802;SDS011;6465;42.700;23.278;2024-02-23T12:41:51;3.17;;;2.80;;
12802;SDS011;6465;42.700;23.278;2024-02-23T12:44:21;3.65;;;3.10;;
12802;SDS011;6465;42.700;23.278;2024-02-23T12:46:48;5.03;;;3.30;;
12802;SDS011;6465;42.700;23.278;2024-02-23T12:49:15;4.45;;;3.40;;
12802;SDS011;6465;42.700;23.278;2024-02-23T12:51:42;4.65;;;3.63;;
12802;SDS011;6465;42.700;23.278;2024-02-23T12:54:09;3.17;;;2.95;;
12802;SDS011;6465;42.700;23.278;2024-02-23T12:56:36;5.57;;;4.43;;
12802;SDS011;6465;42.700;23.278;2024-02-23T12:59:03;4.57;;;4.00;;
12802;SDS011;6465;42.700;23.278;2024-02-23T13:01:31;4.95;;;3.50;;
12802;SDS011;6465;42.700;23.278;2024-02-23T13:04:01;3.80;;;3.40;;
12802;SDS011;6465;42.700;23.278;2024-02-23T13:06:28;4.07;;;3.47;;
12802;SDS011;6465;42.700;23.278;2024-02-23T13:08:55;2.60;;;2.40;;
12802;SDS011;6465;42.700;23.278;2024-02-23T13:11:22;4.00;;;3.70;;
12802;SDS011;6465;42.700;23.278;2024-02-23T13:13:49;3.05;;;2.80;;
12802;SDS011;6465;42.700;23.278;2024-02-23T13:16:16;3.85;;;3.53;;
12802;SDS011;6465;42.700;23.278;2024-02-23T13:18:46;6.32;;;3.33;;
12802;SDS011;6465;42.700;23.278;2024-02-23T13:21:13;8.65;;;3.72;;
12802;SDS011;6465;42.700;23.278;2024-02-23T13:23:40;7.95;;;2.83;;
12802;SDS011;6465;42.700;23.278;2024-02-23T13:26:08;4.10;;;2.78;;
12802;SDS011;6465;42.700;23.278;2024-02-23T13:28:39;5.10;;;2.38;;
12802;SDS011;6465;42.700;23.278;2024-02-23T13:31:06;2.85;;;2.60;;
12802;SDS011;6465;42.700;23.278;2024-02-23T13:33:33;3.40;;;2.47;;
12802;SDS011;6465;42.700;23.278;2024-02-23T13:36:01;4.38;;;2.95;;
12802;SDS011;6465;42.700;23.278;2024-02-23T13:38:29;4.65;;;3.20;;
12802;SDS011;6465;42.700;23.278;2024-02-23T13:40:56;4.20;;;3.78;;
12802;SDS011;6465;42.700;23.278;2024-02-23T13:43:23;5.35;;;3.47;;
12802;SDS011;6465;42.700;23.278;2024-02-23T13:45:51;6.05;;;3.72;;
12802;SDS011;6465;42.700;23.278;2024-02-23T13:48:19;4.43;;;4.03;;
12802;SDS011;6465;42.700;23.278;2024-02-23T13:50:47;3.58;;;3.28;;
12802;SDS011;6465;42.700;23.278;2024-02-23T13:53:16;3.58;;;3.03;;
12802;SDS011;6465;42.700;23.278;2024-02-23T13:55:44;3.10;;;2.85;;
12802;SDS011;6465;42.700;23.278;2024-02-23T13:58:11;4.20;;;3.38;;
12802;SDS011;6465;42.700;23.278;2024-02-23T14:00:38;3.92;;;3.25;;
12802;SDS011;6465;42.700;23.278;2024-02-23T14:03:05;7.15;;;4.63;;
12802;SDS011;6465;42.700;23.278;2024-02-23T14:05:32;2.53;;;2.35;;
12802;SDS011;6465;42.700;23.278;2024-02-23T14:07:59;3.45;;;2.67;;
12802;SDS011;6465;42.700;23.278;2024-02-23T14:10:28;3.13;;;2.10;;
12802;SDS011;6465;42.700;23.278;2024-02-23T14:12:55;2.47;;;2.28;;
12802;SDS011;6465;42.700;23.278;2024-02-23T14:15:22;2.97;;;2.78;;
12802;SDS011;6465;42.700;23.278;2024-02-23T14:17:49;3.80;;;2.60;;
12802;SDS011;6465;42.700;23.278;2024-02-23T14:20:16;4.13;;;3.13;;
12802;SDS011;6465;42.700;23.278;2024-02-23T14:22:43;2.65;;;2.45;;
12802;SDS011;6465;42.700;23.278;2024-02-23T14:25:10;3.22;;;2.95;;
12802;SDS011;6465;42.700;23.278;2024-02-23T14:27:39;3.83;;;3.10;;
12802;SDS011;6465;42.700;23.278;2024-02-23T14:30:06;2.63;;;2.53;;
12802;SDS011;6465;42.700;23.278;2024-02-23T14:32:34;2.38;;;2.17;;
12802;SDS011;6465;42.700;23.278;2024-02-23T14:35:02;3.53;;;2.55;;
12802;SDS011;6465;42.700;23.278;2024-02-23T14:37:29;3.92;;;3.50;;
12802;SDS011;6465;42.700;23.278;2024-02-23T14:39:56;6.10;;;3.60;;
12802;SDS011;6465;42.700;23.278;2024-02-23T14:42:23;7.18;;;3.20;;